FWV912 ESMS-LXGB
Flight info
| Callsign | FWV912 |
|---|---|
| Flight time | 3h 39m |
| Altitude | 36000 |
| Route | DISGO DCT DEMIR N872 PAM/N0452F350 N872 MEDIL DCT RESMI/N0450F370 UN857 DISAK DCT TUDRA DCT OSMOB DCT ARVID T424 PPN N857 NOLSA N10 BAN N857 MONTO N864 CRISA DCT BRIKE |
| Aircraft | B38M/M-SDE1FGHILORVWXY/HB1 |
Departure
| Time | 2026-04-27 06:45 |
|---|---|
| Airport | Malmö Sturup Airport (ESMS) |
Arrival
| Time | 2026-04-27 10:24 |
|---|---|
| Airport | Gibraltar Airport (LXGB) |
| Time | Latitude | Longitude | Altitude | Speed | Heading |
|---|---|---|---|---|---|
| 2026-04-27 06:11 | 55.54005 | 13.36695 | 233 ft | 0 kts | 353° |
| 2026-04-27 06:33 | 55.54001 | 13.36696 | 233 ft | 3 kts | 353° |
| 2026-04-27 06:33 | 55.53975 | 13.36701 | 241 ft | 4 kts | 353° |
| 2026-04-27 06:33 | 55.53954 | 13.36705 | 236 ft | 4 kts | 0° |
| 2026-04-27 06:33 | 55.53934 | 13.36696 | 237 ft | 4 kts | 64° |
| 2026-04-27 06:34 | 55.53930 | 13.36657 | 235 ft | 3 kts | 83° |
| 2026-04-27 06:34 | 55.53930 | 13.36652 | 235 ft | 2 kts | 83° |
| 2026-04-27 06:39 | 55.53930 | 13.36654 | 233 ft | 1 kts | 83° |
| 2026-04-27 06:39 | 55.53931 | 13.36672 | 233 ft | 2 kts | 85° |
| 2026-04-27 06:39 | 55.53934 | 13.36714 | 235 ft | 6 kts | 84° |
| 2026-04-27 06:40 | 55.53943 | 13.36850 | 233 ft | 14 kts | 82° |
| 2026-04-27 06:40 | 55.53956 | 13.37032 | 233 ft | 16 kts | 83° |
| 2026-04-27 06:40 | 55.53955 | 13.37225 | 234 ft | 16 kts | 118° |
| 2026-04-27 06:40 | 55.53852 | 13.37280 | 234 ft | 17 kts | 173° |
| 2026-04-27 06:41 | 55.53733 | 13.37305 | 234 ft | 18 kts | 173° |
| 2026-04-27 06:41 | 55.53605 | 13.37332 | 235 ft | 19 kts | 173° |
| 2026-04-27 06:41 | 55.53461 | 13.37362 | 234 ft | 23 kts | 173° |
| 2026-04-27 06:41 | 55.53295 | 13.37395 | 234 ft | 24 kts | 174° |
| 2026-04-27 06:42 | 55.53129 | 13.37429 | 236 ft | 25 kts | 173° |
| 2026-04-27 06:42 | 55.52953 | 13.37466 | 238 ft | 26 kts | 173° |
| 2026-04-27 06:42 | 55.52773 | 13.37503 | 238 ft | 26 kts | 173° |
| 2026-04-27 06:42 | 55.52598 | 13.37540 | 234 ft | 26 kts | 173° |
| 2026-04-27 06:43 | 55.52455 | 13.37584 | 235 ft | 16 kts | 153° |
| 2026-04-27 06:43 | 55.52363 | 13.37698 | 235 ft | 16 kts | 140° |
| 2026-04-27 06:43 | 55.52316 | 13.37817 | 239 ft | 6 kts | 84° |
| 2026-04-27 06:43 | 55.52329 | 13.37863 | 240 ft | 4 kts | 50° |
| 2026-04-27 06:44 | 55.52351 | 13.37884 | 241 ft | 4 kts | 8° |
| 2026-04-27 06:44 | 55.52380 | 13.37880 | 241 ft | 5 kts | 355° |
| 2026-04-27 06:44 | 55.52508 | 13.37853 | 241 ft | 49 kts | 353° |
| 2026-04-27 06:44 | 55.53117 | 13.37727 | 243 ft | 125 kts | 353° |
| 2026-04-27 06:45 | 55.54189 | 13.37495 | 328 ft | 178 kts | 353° |
| 2026-04-27 06:45 | 55.55486 | 13.37243 | 1114 ft | 186 kts | 354° |
| 2026-04-27 06:45 | 55.56798 | 13.36981 | 2203 ft | 192 kts | 354° |
| 2026-04-27 06:45 | 55.58143 | 13.36714 | 3084 ft | 200 kts | 355° |
| 2026-04-27 06:46 | 55.59585 | 13.36428 | 3807 ft | 209 kts | 354° |
| 2026-04-27 06:46 | 55.61023 | 13.36178 | 4814 ft | 209 kts | 0° |
| 2026-04-27 06:46 | 55.62431 | 13.36744 | 5700 ft | 211 kts | 28° |
| 2026-04-27 06:46 | 55.63495 | 13.38549 | 6550 ft | 219 kts | 57° |
| 2026-04-27 06:47 | 55.63905 | 13.41182 | 7288 ft | 231 kts | 88° |
| 2026-04-27 06:47 | 55.63448 | 13.43954 | 7984 ft | 244 kts | 122° |
| 2026-04-27 06:47 | 55.62179 | 13.45993 | 8679 ft | 252 kts | 146° |
| 2026-04-27 06:47 | 55.60736 | 13.47811 | 9358 ft | 258 kts | 141° |
| 2026-04-27 06:48 | 55.59307 | 13.49753 | 10131 ft | 261 kts | 141° |
| 2026-04-27 06:48 | 55.57856 | 13.51744 | 10782 ft | 267 kts | 141° |
| 2026-04-27 06:48 | 55.56186 | 13.53330 | 11181 ft | 282 kts | 168° |
| 2026-04-27 06:48 | 55.54196 | 13.53729 | 11569 ft | 296 kts | 178° |
| 2026-04-27 06:49 | 55.52078 | 13.54061 | 11921 ft | 316 kts | 176° |
| 2026-04-27 06:49 | 55.49821 | 13.54420 | 12232 ft | 335 kts | 177° |
| 2026-04-27 06:49 | 55.47428 | 13.54791 | 12523 ft | 355 kts | 177° |
| 2026-04-27 06:49 | 55.44913 | 13.55164 | 12917 ft | 369 kts | 179° |
| 2026-04-27 06:50 | 55.42375 | 13.54618 | 13561 ft | 367 kts | 201° |
| 2026-04-27 06:50 | 55.40123 | 13.52589 | 14213 ft | 365 kts | 221° |
| 2026-04-27 06:50 | 55.38326 | 13.49464 | 14784 ft | 363 kts | 233° |
| 2026-04-27 06:50 | 55.36655 | 13.46099 | 15387 ft | 367 kts | 234° |
| 2026-04-27 06:51 | 55.34988 | 13.42678 | 16016 ft | 370 kts | 234° |
| 2026-04-27 06:51 | 55.33320 | 13.39219 | 16634 ft | 373 kts | 235° |
| 2026-04-27 06:51 | 55.31645 | 13.35725 | 17218 ft | 375 kts | 235° |
| 2026-04-27 06:51 | 55.29961 | 13.32199 | 17802 ft | 378 kts | 235° |
| 2026-04-27 06:52 | 55.28263 | 13.28646 | 18404 ft | 382 kts | 235° |
| 2026-04-27 06:52 | 55.26551 | 13.25067 | 18907 ft | 385 kts | 235° |
| 2026-04-27 06:52 | 55.24823 | 13.21460 | 19416 ft | 387 kts | 235° |
| 2026-04-27 06:52 | 55.23089 | 13.17844 | 19919 ft | 389 kts | 235° |
| 2026-04-27 06:53 | 55.21341 | 13.14206 | 20422 ft | 392 kts | 235° |
| 2026-04-27 06:53 | 55.19581 | 13.10545 | 20917 ft | 394 kts | 235° |
| 2026-04-27 06:53 | 55.17848 | 13.06827 | 21388 ft | 393 kts | 242° |
| 2026-04-27 06:53 | 55.16697 | 13.02572 | 21843 ft | 383 kts | 260° |
| 2026-04-27 06:54 | 55.16270 | 12.98004 | 22240 ft | 382 kts | 268° |
| 2026-04-27 06:54 | 55.16009 | 12.93364 | 22680 ft | 384 kts | 269° |
| 2026-04-27 06:54 | 55.15789 | 12.88698 | 23151 ft | 386 kts | 270° |
| 2026-04-27 06:54 | 55.15588 | 12.84001 | 23600 ft | 388 kts | 270° |
| 2026-04-27 06:55 | 55.15399 | 12.79282 | 24011 ft | 390 kts | 270° |
| 2026-04-27 06:55 | 55.15211 | 12.74532 | 24379 ft | 393 kts | 269° |
| 2026-04-27 06:55 | 55.14759 | 12.69783 | 24735 ft | 397 kts | 264° |
| 2026-04-27 06:55 | 55.14260 | 12.65019 | 25095 ft | 399 kts | 264° |
| 2026-04-27 06:56 | 55.13777 | 12.60240 | 25458 ft | 401 kts | 264° |
| 2026-04-27 06:56 | 55.13298 | 12.55429 | 25798 ft | 403 kts | 264° |
| 2026-04-27 06:56 | 55.12820 | 12.50590 | 26116 ft | 405 kts | 264° |
| 2026-04-27 06:56 | 55.12341 | 12.45730 | 26469 ft | 407 kts | 264° |
| 2026-04-27 06:57 | 55.11857 | 12.40849 | 26807 ft | 409 kts | 264° |
| 2026-04-27 06:57 | 55.11370 | 12.35950 | 27143 ft | 410 kts | 264° |
| 2026-04-27 06:57 | 55.10879 | 12.31030 | 27473 ft | 412 kts | 264° |
| 2026-04-27 06:57 | 55.10383 | 12.26088 | 27793 ft | 414 kts | 264° |
| 2026-04-27 06:58 | 55.09883 | 12.21123 | 28114 ft | 416 kts | 264° |
| 2026-04-27 06:58 | 55.08871 | 12.11136 | 28726 ft | 419 kts | 263° |
| 2026-04-27 06:58 | 55.08360 | 12.06118 | 29030 ft | 421 kts | 263° |
| 2026-04-27 06:59 | 55.07843 | 12.01074 | 29326 ft | 423 kts | 263° |
| 2026-04-27 06:59 | 55.07323 | 11.96019 | 29616 ft | 425 kts | 263° |
| 2026-04-27 06:59 | 55.06798 | 11.90944 | 29914 ft | 426 kts | 263° |
| 2026-04-27 06:59 | 55.06269 | 11.85838 | 30188 ft | 428 kts | 263° |
| 2026-04-27 07:00 | 55.05736 | 11.80727 | 30448 ft | 430 kts | 263° |
| 2026-04-27 07:00 | 55.05199 | 11.75594 | 30748 ft | 429 kts | 263° |
| 2026-04-27 07:00 | 55.04662 | 11.70486 | 31073 ft | 428 kts | 263° |
| 2026-04-27 07:00 | 55.04123 | 11.65381 | 31404 ft | 427 kts | 263° |
| 2026-04-27 07:01 | 55.03584 | 11.60295 | 31732 ft | 426 kts | 263° |
| 2026-04-27 07:01 | 55.03044 | 11.55222 | 32048 ft | 425 kts | 263° |
| 2026-04-27 07:01 | 55.02503 | 11.50165 | 32393 ft | 423 kts | 263° |
| 2026-04-27 07:01 | 55.01956 | 11.45071 | 32739 ft | 422 kts | 263° |
| 2026-04-27 07:02 | 55.01416 | 11.40053 | 33047 ft | 421 kts | 263° |
| 2026-04-27 07:02 | 55.00874 | 11.35049 | 33352 ft | 420 kts | 263° |
| 2026-04-27 07:02 | 55.00332 | 11.30062 | 33643 ft | 419 kts | 263° |
| 2026-04-27 07:02 | 54.99789 | 11.25079 | 33902 ft | 418 kts | 263° |
| 2026-04-27 07:03 | 54.99245 | 11.20119 | 34222 ft | 416 kts | 263° |
| 2026-04-27 07:03 | 54.98701 | 11.15171 | 34466 ft | 416 kts | 263° |
| 2026-04-27 07:03 | 54.98155 | 11.10224 | 34668 ft | 416 kts | 263° |
| 2026-04-27 07:03 | 54.97606 | 11.05272 | 34843 ft | 417 kts | 263° |
| 2026-04-27 07:04 | 54.97055 | 11.00325 | 35025 ft | 417 kts | 263° |
| 2026-04-27 07:04 | 54.96502 | 10.95374 | 35201 ft | 417 kts | 262° |
| 2026-04-27 07:04 | 54.95947 | 10.90421 | 35397 ft | 417 kts | 262° |
| 2026-04-27 07:04 | 54.95390 | 10.85478 | 35599 ft | 416 kts | 262° |
| 2026-04-27 07:05 | 54.94831 | 10.80528 | 35761 ft | 417 kts | 262° |
| 2026-04-27 07:05 | 54.94269 | 10.75578 | 35920 ft | 417 kts | 262° |
| 2026-04-27 07:05 | 54.93705 | 10.70625 | 36096 ft | 418 kts | 262° |
| 2026-04-27 07:05 | 54.93139 | 10.65676 | 36248 ft | 418 kts | 262° |
| 2026-04-27 07:06 | 54.92578 | 10.60783 | 36345 ft | 418 kts | 262° |
| 2026-04-27 07:06 | 54.91426 | 10.50804 | 36324 ft | 417 kts | 262° |
| 2026-04-27 07:07 | 54.90277 | 10.40925 | 36336 ft | 418 kts | 262° |
| 2026-04-27 07:07 | 54.89117 | 10.31033 | 36338 ft | 418 kts | 262° |
| 2026-04-27 07:08 | 54.87951 | 10.21151 | 36341 ft | 418 kts | 262° |
| 2026-04-27 07:08 | 54.86777 | 10.11277 | 36342 ft | 418 kts | 262° |
| 2026-04-27 07:09 | 54.85598 | 10.01404 | 36347 ft | 418 kts | 261° |
| 2026-04-27 07:09 | 54.84413 | 9.91554 | 36341 ft | 416 kts | 261° |
| 2026-04-27 07:10 | 54.82249 | 9.82335 | 36362 ft | 424 kts | 239° |
| 2026-04-27 07:10 | 54.78918 | 9.73853 | 36320 ft | 425 kts | 240° |
| 2026-04-27 07:11 | 54.75522 | 9.65465 | 36324 ft | 425 kts | 239° |
| 2026-04-27 07:11 | 54.72652 | 9.58482 | 36343 ft | 425 kts | 239° |
| 2026-04-27 07:12 | 54.69214 | 9.50155 | 36332 ft | 425 kts | 239° |
| 2026-04-27 07:12 | 54.65771 | 9.41843 | 36337 ft | 425 kts | 239° |
| 2026-04-27 07:13 | 54.62327 | 9.33561 | 36323 ft | 422 kts | 239° |
| 2026-04-27 07:13 | 54.58899 | 9.25346 | 36332 ft | 422 kts | 239° |
| 2026-04-27 07:14 | 54.55468 | 9.17149 | 36332 ft | 422 kts | 239° |
| 2026-04-27 07:14 | 54.52038 | 9.08984 | 36329 ft | 419 kts | 239° |
| 2026-04-27 07:15 | 54.48614 | 9.00858 | 36337 ft | 419 kts | 239° |
| 2026-04-27 07:15 | 54.45184 | 8.92744 | 36335 ft | 419 kts | 239° |
| 2026-04-27 07:16 | 54.41750 | 8.84648 | 36317 ft | 419 kts | 239° |
| 2026-04-27 07:16 | 54.38310 | 8.76563 | 36334 ft | 419 kts | 239° |
| 2026-04-27 07:17 | 54.34865 | 8.68495 | 36336 ft | 419 kts | 239° |
| 2026-04-27 07:17 | 54.31416 | 8.60441 | 36333 ft | 419 kts | 238° |
| 2026-04-27 07:18 | 54.27960 | 8.52397 | 36333 ft | 419 kts | 238° |
| 2026-04-27 07:18 | 54.24510 | 8.44389 | 36332 ft | 417 kts | 238° |
| 2026-04-27 07:19 | 54.20691 | 8.36898 | 36330 ft | 422 kts | 229° |
| 2026-04-27 07:19 | 54.16427 | 8.29965 | 36330 ft | 423 kts | 229° |
| 2026-04-27 07:20 | 54.12155 | 8.23050 | 36344 ft | 423 kts | 229° |
| 2026-04-27 07:20 | 54.07884 | 8.16155 | 36346 ft | 423 kts | 229° |
| 2026-04-27 07:21 | 54.03610 | 8.09266 | 36343 ft | 423 kts | 229° |
| 2026-04-27 07:21 | 53.99333 | 8.02393 | 36341 ft | 423 kts | 229° |
| 2026-04-27 07:22 | 53.95052 | 7.95537 | 36343 ft | 423 kts | 228° |
| 2026-04-27 07:22 | 53.90770 | 7.88700 | 36351 ft | 423 kts | 228° |
| 2026-04-27 07:23 | 53.86493 | 7.81890 | 36345 ft | 421 kts | 228° |
| 2026-04-27 07:23 | 53.82217 | 7.75103 | 36345 ft | 421 kts | 228° |
| 2026-04-27 07:24 | 53.77936 | 7.68327 | 36349 ft | 421 kts | 228° |
| 2026-04-27 07:24 | 53.73653 | 7.61568 | 36325 ft | 421 kts | 228° |
| 2026-04-27 07:25 | 53.69367 | 7.54823 | 36343 ft | 421 kts | 227° |
| 2026-04-27 07:25 | 53.65081 | 7.48100 | 36345 ft | 421 kts | 227° |
| 2026-04-27 07:26 | 53.60786 | 7.41382 | 36348 ft | 421 kts | 227° |
| 2026-04-27 07:26 | 53.56491 | 7.34681 | 36347 ft | 421 kts | 227° |
| 2026-04-27 07:27 | 53.52189 | 7.27991 | 36343 ft | 421 kts | 227° |
| 2026-04-27 07:27 | 53.47890 | 7.21324 | 36340 ft | 421 kts | 227° |
| 2026-04-27 07:28 | 53.43586 | 7.14670 | 36346 ft | 420 kts | 227° |
| 2026-04-27 07:28 | 53.39285 | 7.08037 | 36346 ft | 420 kts | 227° |
| 2026-04-27 07:29 | 53.34979 | 7.01413 | 36347 ft | 420 kts | 227° |
| 2026-04-27 07:29 | 53.31015 | 6.94322 | 36368 ft | 417 kts | 232° |
| 2026-04-27 07:30 | 53.27181 | 6.87051 | 36343 ft | 417 kts | 233° |
| 2026-04-27 07:30 | 53.23349 | 6.79780 | 36347 ft | 417 kts | 233° |
| 2026-04-27 07:31 | 53.19513 | 6.72519 | 36347 ft | 417 kts | 232° |
| 2026-04-27 07:31 | 53.15705 | 6.65232 | 36346 ft | 416 kts | 234° |
| 2026-04-27 07:32 | 53.11955 | 6.57879 | 36346 ft | 416 kts | 233° |
| 2026-04-27 07:32 | 53.08196 | 6.50550 | 36347 ft | 416 kts | 233° |
| 2026-04-27 07:33 | 53.04434 | 6.43239 | 36345 ft | 416 kts | 233° |
| 2026-04-27 07:33 | 53.00665 | 6.35935 | 36346 ft | 416 kts | 233° |
| 2026-04-27 07:34 | 52.96891 | 6.28646 | 36343 ft | 416 kts | 233° |
| 2026-04-27 07:34 | 52.93112 | 6.21366 | 36343 ft | 416 kts | 233° |
| 2026-04-27 07:35 | 52.89328 | 6.14098 | 36345 ft | 416 kts | 233° |
| 2026-04-27 07:35 | 52.85540 | 6.06843 | 36344 ft | 416 kts | 233° |
| 2026-04-27 07:36 | 52.81750 | 5.99606 | 36345 ft | 416 kts | 232° |
| 2026-04-27 07:36 | 52.77955 | 5.92380 | 36342 ft | 416 kts | 232° |
| 2026-04-27 07:37 | 52.74155 | 5.85162 | 36344 ft | 416 kts | 232° |
| 2026-04-27 07:37 | 52.70348 | 5.77961 | 36344 ft | 416 kts | 232° |
| 2026-04-27 07:38 | 52.66540 | 5.70776 | 36346 ft | 416 kts | 232° |
| 2026-04-27 07:38 | 52.62727 | 5.63600 | 36310 ft | 416 kts | 232° |
| 2026-04-27 07:39 | 52.58907 | 5.56432 | 36325 ft | 417 kts | 232° |
| 2026-04-27 07:39 | 52.55080 | 5.49273 | 36322 ft | 417 kts | 232° |
| 2026-04-27 07:40 | 52.51249 | 5.42128 | 36318 ft | 417 kts | 232° |
| 2026-04-27 07:40 | 52.47418 | 5.34998 | 36325 ft | 417 kts | 232° |
| 2026-04-27 07:41 | 52.43579 | 5.27875 | 36320 ft | 417 kts | 232° |
| 2026-04-27 07:41 | 52.39738 | 5.20767 | 36311 ft | 417 kts | 232° |
| 2026-04-27 07:42 | 52.35890 | 5.13666 | 36322 ft | 417 kts | 231° |
| 2026-04-27 07:42 | 52.31364 | 5.07752 | 36337 ft | 425 kts | 211° |
| 2026-04-27 07:43 | 52.26065 | 5.03361 | 36310 ft | 428 kts | 211° |
| 2026-04-27 07:43 | 52.20722 | 4.99063 | 36318 ft | 429 kts | 210° |
| 2026-04-27 07:44 | 52.15327 | 4.94778 | 36308 ft | 428 kts | 210° |
| 2026-04-27 07:44 | 52.09965 | 4.90537 | 36324 ft | 428 kts | 210° |
| 2026-04-27 07:45 | 52.04601 | 4.86304 | 36317 ft | 429 kts | 210° |
| 2026-04-27 07:45 | 51.99229 | 4.82077 | 36314 ft | 429 kts | 210° |
| 2026-04-27 07:46 | 51.93857 | 4.77861 | 36296 ft | 429 kts | 210° |
| 2026-04-27 07:46 | 51.88486 | 4.73658 | 36313 ft | 429 kts | 210° |
| 2026-04-27 07:47 | 51.83114 | 4.69463 | 36310 ft | 429 kts | 210° |
| 2026-04-27 07:47 | 51.77739 | 4.65277 | 36314 ft | 429 kts | 210° |
| 2026-04-27 07:48 | 51.72362 | 4.61098 | 36316 ft | 429 kts | 210° |
| 2026-04-27 07:48 | 51.66985 | 4.56933 | 36302 ft | 429 kts | 210° |
| 2026-04-27 07:49 | 51.62515 | 4.53482 | 36295 ft | 429 kts | 210° |
| 2026-04-27 07:49 | 51.57135 | 4.49339 | 36294 ft | 429 kts | 210° |
| 2026-04-27 07:50 | 51.51751 | 4.45204 | 36294 ft | 429 kts | 210° |
| 2026-04-27 07:50 | 51.46369 | 4.41081 | 36283 ft | 428 kts | 210° |
| 2026-04-27 07:51 | 51.40987 | 4.36970 | 36288 ft | 428 kts | 210° |
| 2026-04-27 07:51 | 51.35605 | 4.32873 | 36292 ft | 428 kts | 210° |
| 2026-04-27 07:52 | 51.30224 | 4.28784 | 36319 ft | 428 kts | 210° |
| 2026-04-27 07:52 | 51.24836 | 4.24695 | 36301 ft | 428 kts | 210° |
| 2026-04-27 07:53 | 51.19453 | 4.20620 | 36318 ft | 428 kts | 210° |
| 2026-04-27 07:53 | 51.13929 | 4.17004 | 36331 ft | 431 kts | 204° |
| 2026-04-27 07:54 | 51.08255 | 4.13863 | 36301 ft | 432 kts | 204° |
| 2026-04-27 07:54 | 51.02578 | 4.10752 | 36302 ft | 432 kts | 203° |
| 2026-04-27 07:55 | 50.96891 | 4.07647 | 36304 ft | 432 kts | 203° |
| 2026-04-27 07:55 | 50.91211 | 4.04553 | 36303 ft | 432 kts | 203° |
| 2026-04-27 07:56 | 50.85612 | 4.01186 | 36312 ft | 430 kts | 207° |
| 2026-04-27 07:56 | 50.80065 | 3.97623 | 36264 ft | 430 kts | 206° |
| 2026-04-27 07:57 | 50.74514 | 3.94097 | 36281 ft | 430 kts | 206° |
| 2026-04-27 07:57 | 50.68959 | 3.90580 | 36283 ft | 430 kts | 206° |
| 2026-04-27 07:58 | 50.63404 | 3.87073 | 36281 ft | 430 kts | 206° |
| 2026-04-27 07:58 | 50.57853 | 3.83557 | 36259 ft | 429 kts | 207° |
| 2026-04-27 07:59 | 50.52382 | 3.79804 | 36267 ft | 429 kts | 207° |
| 2026-04-27 07:59 | 50.44130 | 3.74202 | 36264 ft | 429 kts | 207° |
| 2026-04-27 08:00 | 50.38652 | 3.70496 | 36269 ft | 429 kts | 207° |
| 2026-04-27 08:00 | 50.33177 | 3.66796 | 36262 ft | 428 kts | 207° |
| 2026-04-27 08:01 | 50.27709 | 3.63101 | 36263 ft | 428 kts | 207° |
| 2026-04-27 08:01 | 50.22238 | 3.59414 | 36265 ft | 428 kts | 207° |
| 2026-04-27 08:02 | 50.16765 | 3.55735 | 36260 ft | 428 kts | 207° |
| 2026-04-27 08:02 | 50.11290 | 3.52064 | 36254 ft | 428 kts | 207° |
| 2026-04-27 08:03 | 50.05816 | 3.48402 | 36256 ft | 428 kts | 207° |
| 2026-04-27 08:03 | 50.00348 | 3.44753 | 36261 ft | 428 kts | 207° |
| 2026-04-27 08:04 | 49.94876 | 3.41111 | 36262 ft | 428 kts | 207° |
| 2026-04-27 08:04 | 49.89401 | 3.37476 | 36253 ft | 428 kts | 207° |
| 2026-04-27 08:05 | 49.83928 | 3.33851 | 36259 ft | 428 kts | 207° |
| 2026-04-27 08:05 | 49.78649 | 3.29731 | 36276 ft | 423 kts | 214° |
| 2026-04-27 08:06 | 49.73590 | 3.25036 | 36256 ft | 424 kts | 214° |
| 2026-04-27 08:06 | 49.68540 | 3.20337 | 36244 ft | 424 kts | 214° |
| 2026-04-27 08:07 | 49.63483 | 3.15640 | 36257 ft | 424 kts | 214° |
| 2026-04-27 08:07 | 49.58425 | 3.10953 | 36260 ft | 424 kts | 214° |
| 2026-04-27 08:08 | 49.53377 | 3.06286 | 36263 ft | 423 kts | 214° |
| 2026-04-27 08:08 | 49.48317 | 3.01621 | 36237 ft | 424 kts | 214° |
| 2026-04-27 08:09 | 49.43265 | 2.96974 | 36260 ft | 424 kts | 214° |
| 2026-04-27 08:09 | 49.38204 | 2.92330 | 36249 ft | 423 kts | 214° |
| 2026-04-27 08:10 | 49.33144 | 2.87697 | 36255 ft | 424 kts | 214° |
| 2026-04-27 08:10 | 49.28081 | 2.83074 | 36250 ft | 424 kts | 214° |
| 2026-04-27 08:11 | 49.23009 | 2.78453 | 36250 ft | 424 kts | 214° |
| 2026-04-27 08:11 | 49.17933 | 2.73840 | 36243 ft | 424 kts | 214° |
| 2026-04-27 08:12 | 49.12856 | 2.69238 | 36240 ft | 424 kts | 214° |
| 2026-04-27 08:12 | 49.07741 | 2.64611 | 36237 ft | 424 kts | 214° |
| 2026-04-27 08:13 | 49.02673 | 2.60038 | 36226 ft | 422 kts | 214° |
| 2026-04-27 08:13 | 48.97622 | 2.55491 | 36238 ft | 422 kts | 214° |
| 2026-04-27 08:14 | 48.92568 | 2.50954 | 36238 ft | 422 kts | 214° |
| 2026-04-27 08:14 | 48.87513 | 2.46425 | 36237 ft | 422 kts | 214° |
| 2026-04-27 08:15 | 48.82490 | 2.41936 | 36237 ft | 422 kts | 214° |
| 2026-04-27 08:15 | 48.77432 | 2.37426 | 36237 ft | 422 kts | 214° |
| 2026-04-27 08:16 | 48.72368 | 2.32922 | 36238 ft | 422 kts | 214° |
| 2026-04-27 08:16 | 48.67304 | 2.28427 | 36238 ft | 422 kts | 214° |
| 2026-04-27 08:17 | 48.62240 | 2.23941 | 36224 ft | 422 kts | 213° |
| 2026-04-27 08:17 | 48.57111 | 2.19619 | 36217 ft | 426 kts | 204° |
| 2026-04-27 08:18 | 48.51329 | 2.17486 | 36204 ft | 430 kts | 197° |
| 2026-04-27 08:18 | 48.45484 | 2.15526 | 36248 ft | 431 kts | 196° |
| 2026-04-27 08:19 | 48.39628 | 2.13629 | 36213 ft | 429 kts | 196° |
| 2026-04-27 08:19 | 48.33786 | 2.11749 | 36231 ft | 430 kts | 196° |
| 2026-04-27 08:20 | 48.27882 | 2.10344 | 36198 ft | 436 kts | 181° |
| 2026-04-27 08:20 | 48.21821 | 2.11442 | 36193 ft | 441 kts | 177° |
| 2026-04-27 08:21 | 48.15739 | 2.12456 | 36188 ft | 436 kts | 187° |
| 2026-04-27 08:21 | 48.12806 | 2.11728 | 36216 ft | 423 kts | 203° |
| 2026-04-27 08:21 | 48.10140 | 2.09925 | 36225 ft | 420 kts | 211° |
| 2026-04-27 08:22 | 48.04987 | 2.05750 | 36218 ft | 422 kts | 213° |
| 2026-04-27 08:22 | 47.99898 | 2.01394 | 36210 ft | 421 kts | 213° |
| 2026-04-27 08:23 | 47.94833 | 1.96996 | 36207 ft | 421 kts | 213° |
| 2026-04-27 08:23 | 47.89769 | 1.92594 | 36211 ft | 421 kts | 213° |
| 2026-04-27 08:24 | 47.84704 | 1.88201 | 36209 ft | 421 kts | 213° |
| 2026-04-27 08:24 | 47.79637 | 1.83816 | 36213 ft | 421 kts | 213° |
| 2026-04-27 08:25 | 47.74567 | 1.79438 | 36208 ft | 422 kts | 213° |
| 2026-04-27 08:25 | 47.69489 | 1.75064 | 36210 ft | 422 kts | 213° |
| 2026-04-27 08:26 | 47.64411 | 1.70699 | 36211 ft | 422 kts | 213° |
| 2026-04-27 08:26 | 47.59335 | 1.66346 | 36218 ft | 421 kts | 213° |
| 2026-04-27 08:27 | 47.54277 | 1.62018 | 36208 ft | 419 kts | 213° |
| 2026-04-27 08:27 | 47.49219 | 1.57701 | 36211 ft | 420 kts | 213° |
| 2026-04-27 08:28 | 47.44979 | 1.54088 | 36214 ft | 420 kts | 213° |
| 2026-04-27 08:28 | 47.39919 | 1.49787 | 36212 ft | 420 kts | 213° |
| 2026-04-27 08:29 | 47.34856 | 1.45492 | 36206 ft | 420 kts | 213° |
| 2026-04-27 08:29 | 47.29786 | 1.41200 | 36209 ft | 420 kts | 213° |
| 2026-04-27 08:30 | 47.24719 | 1.36921 | 36204 ft | 420 kts | 213° |
| 2026-04-27 08:30 | 47.19648 | 1.32649 | 36203 ft | 420 kts | 213° |
| 2026-04-27 08:31 | 47.14575 | 1.28383 | 36193 ft | 420 kts | 213° |
| 2026-04-27 08:31 | 47.09491 | 1.24118 | 36195 ft | 421 kts | 213° |
| 2026-04-27 08:32 | 47.04413 | 1.19868 | 36195 ft | 419 kts | 212° |
| 2026-04-27 08:32 | 46.99351 | 1.15640 | 36192 ft | 419 kts | 212° |
| 2026-04-27 08:33 | 46.94282 | 1.11417 | 36187 ft | 419 kts | 212° |
| 2026-04-27 08:33 | 46.89206 | 1.07195 | 36199 ft | 420 kts | 212° |
| 2026-04-27 08:34 | 46.84130 | 1.02984 | 36197 ft | 420 kts | 212° |
| 2026-04-27 08:34 | 46.79053 | 0.98781 | 36194 ft | 419 kts | 212° |
| 2026-04-27 08:35 | 46.73973 | 0.94584 | 36191 ft | 420 kts | 212° |
| 2026-04-27 08:35 | 46.68894 | 0.90398 | 36188 ft | 419 kts | 212° |
| 2026-04-27 08:36 | 46.63813 | 0.86217 | 36191 ft | 419 kts | 212° |
| 2026-04-27 08:36 | 46.58730 | 0.82044 | 36194 ft | 419 kts | 212° |
| 2026-04-27 08:37 | 46.53620 | 0.77959 | 36186 ft | 420 kts | 206° |
| 2026-04-27 08:37 | 46.48235 | 0.74621 | 36197 ft | 421 kts | 206° |
| 2026-04-27 08:38 | 46.42838 | 0.71310 | 36202 ft | 421 kts | 206° |
| 2026-04-27 08:38 | 46.37440 | 0.68011 | 36196 ft | 421 kts | 206° |
| 2026-04-27 08:39 | 46.32034 | 0.64715 | 36198 ft | 422 kts | 206° |
| 2026-04-27 08:39 | 46.26616 | 0.61419 | 36184 ft | 422 kts | 206° |
| 2026-04-27 08:40 | 46.21205 | 0.58134 | 36195 ft | 422 kts | 206° |
| 2026-04-27 08:40 | 46.15791 | 0.54854 | 36173 ft | 422 kts | 206° |
| 2026-04-27 08:41 | 46.10359 | 0.51571 | 36193 ft | 424 kts | 206° |
| 2026-04-27 08:41 | 46.04924 | 0.48293 | 36192 ft | 424 kts | 206° |
| 2026-04-27 08:42 | 45.99485 | 0.45019 | 36189 ft | 424 kts | 206° |
| 2026-04-27 08:42 | 45.94044 | 0.41752 | 36180 ft | 425 kts | 205° |
| 2026-04-27 08:43 | 45.88580 | 0.38476 | 36198 ft | 425 kts | 205° |
| 2026-04-27 08:43 | 45.83145 | 0.35226 | 36188 ft | 423 kts | 205° |
| 2026-04-27 08:44 | 45.77711 | 0.31984 | 36167 ft | 423 kts | 205° |
| 2026-04-27 08:44 | 45.72272 | 0.28744 | 36191 ft | 424 kts | 205° |
| 2026-04-27 08:45 | 45.66823 | 0.25506 | 36185 ft | 424 kts | 205° |
| 2026-04-27 08:45 | 45.61377 | 0.22277 | 36175 ft | 424 kts | 205° |
| 2026-04-27 08:46 | 45.55927 | 0.19052 | 36155 ft | 424 kts | 205° |
| 2026-04-27 08:46 | 45.50451 | 0.15818 | 36175 ft | 427 kts | 205° |
| 2026-04-27 08:47 | 45.44971 | 0.12590 | 36174 ft | 426 kts | 205° |
| 2026-04-27 08:47 | 45.39487 | 0.09365 | 36177 ft | 426 kts | 205° |
| 2026-04-27 08:48 | 45.33999 | 0.06145 | 36174 ft | 427 kts | 205° |
| 2026-04-27 08:48 | 45.28496 | 0.02923 | 36166 ft | 427 kts | 205° |
| 2026-04-27 08:49 | 45.22998 | -0.00290 | 36173 ft | 428 kts | 205° |
| 2026-04-27 08:49 | 45.17505 | -0.03492 | 36157 ft | 426 kts | 205° |
| 2026-04-27 08:50 | 45.12011 | -0.06690 | 36174 ft | 428 kts | 205° |
| 2026-04-27 08:50 | 45.06508 | -0.09885 | 36170 ft | 427 kts | 205° |
| 2026-04-27 08:51 | 45.01004 | -0.13074 | 36168 ft | 427 kts | 205° |
| 2026-04-27 08:51 | 44.95494 | -0.16260 | 36174 ft | 429 kts | 205° |
| 2026-04-27 08:52 | 44.89963 | -0.19452 | 36167 ft | 429 kts | 205° |
| 2026-04-27 08:52 | 44.84432 | -0.22636 | 36168 ft | 429 kts | 205° |
| 2026-04-27 08:53 | 44.78903 | -0.25815 | 36176 ft | 429 kts | 205° |
| 2026-04-27 08:53 | 44.73369 | -0.28989 | 36174 ft | 429 kts | 205° |
| 2026-04-27 08:54 | 44.67838 | -0.32156 | 36173 ft | 429 kts | 205° |
| 2026-04-27 08:54 | 44.62487 | -0.35772 | 36194 ft | 426 kts | 211° |
| 2026-04-27 08:55 | 44.57234 | -0.39701 | 36176 ft | 428 kts | 210° |
| 2026-04-27 08:55 | 44.51951 | -0.43585 | 36176 ft | 429 kts | 210° |
| 2026-04-27 08:56 | 44.46667 | -0.47454 | 36178 ft | 428 kts | 210° |
| 2026-04-27 08:56 | 44.41383 | -0.51313 | 36161 ft | 429 kts | 210° |
| 2026-04-27 08:57 | 44.33425 | -0.57111 | 36174 ft | 430 kts | 210° |
| 2026-04-27 08:58 | 44.28115 | -0.60969 | 36178 ft | 430 kts | 210° |
| 2026-04-27 08:58 | 44.22805 | -0.64820 | 36181 ft | 430 kts | 210° |
| 2026-04-27 08:59 | 44.17490 | -0.68666 | 36182 ft | 431 kts | 209° |
| 2026-04-27 08:59 | 44.12167 | -0.72510 | 36181 ft | 431 kts | 209° |
| 2026-04-27 09:00 | 44.06844 | -0.76347 | 36180 ft | 431 kts | 209° |
| 2026-04-27 09:00 | 44.01529 | -0.80169 | 36171 ft | 429 kts | 209° |
| 2026-04-27 09:01 | 43.96210 | -0.83988 | 36188 ft | 431 kts | 209° |
| 2026-04-27 09:01 | 43.90882 | -0.87804 | 36181 ft | 431 kts | 209° |
| 2026-04-27 09:02 | 43.85550 | -0.91616 | 36182 ft | 431 kts | 209° |
| 2026-04-27 09:02 | 43.80218 | -0.95420 | 36175 ft | 432 kts | 209° |
| 2026-04-27 09:03 | 43.74861 | -0.99235 | 36185 ft | 433 kts | 209° |
| 2026-04-27 09:03 | 43.69499 | -1.03044 | 36184 ft | 433 kts | 209° |
| 2026-04-27 09:04 | 43.64140 | -1.06845 | 36183 ft | 433 kts | 209° |
| 2026-04-27 09:04 | 43.58776 | -1.10641 | 36180 ft | 434 kts | 208° |
| 2026-04-27 09:05 | 43.53392 | -1.14443 | 36179 ft | 435 kts | 208° |
| 2026-04-27 09:05 | 43.48014 | -1.18234 | 36177 ft | 434 kts | 208° |
| 2026-04-27 09:06 | 43.42642 | -1.22013 | 36186 ft | 434 kts | 208° |
| 2026-04-27 09:06 | 43.37258 | -1.25792 | 36196 ft | 436 kts | 208° |
| 2026-04-27 09:07 | 43.32768 | -1.28938 | 36173 ft | 435 kts | 208° |
| 2026-04-27 09:07 | 43.27370 | -1.32715 | 36189 ft | 436 kts | 208° |
| 2026-04-27 09:08 | 43.21969 | -1.36485 | 36172 ft | 435 kts | 208° |
| 2026-04-27 09:08 | 43.16560 | -1.40254 | 36180 ft | 437 kts | 208° |
| 2026-04-27 09:09 | 43.11142 | -1.44023 | 36181 ft | 437 kts | 208° |
| 2026-04-27 09:09 | 43.05729 | -1.47788 | 36171 ft | 436 kts | 208° |
| 2026-04-27 09:10 | 43.00315 | -1.51556 | 36149 ft | 437 kts | 208° |
| 2026-04-27 09:10 | 42.94886 | -1.55329 | 36171 ft | 438 kts | 208° |
| 2026-04-27 09:11 | 42.89428 | -1.59113 | 36165 ft | 437 kts | 208° |
| 2026-04-27 09:11 | 42.84042 | -1.62840 | 36181 ft | 437 kts | 208° |
| 2026-04-27 09:12 | 42.78585 | -1.66608 | 36183 ft | 437 kts | 208° |
| 2026-04-27 09:12 | 42.73192 | -1.70313 | 36183 ft | 437 kts | 208° |
| 2026-04-27 09:13 | 42.67741 | -1.73983 | 36182 ft | 437 kts | 208° |
| 2026-04-27 09:13 | 42.62293 | -1.77651 | 36178 ft | 437 kts | 208° |
| 2026-04-27 09:14 | 42.56805 | -1.81338 | 36165 ft | 438 kts | 208° |
| 2026-04-27 09:14 | 42.51336 | -1.85006 | 36167 ft | 438 kts | 207° |
| 2026-04-27 09:15 | 42.45908 | -1.88640 | 36162 ft | 438 kts | 208° |
| 2026-04-27 09:15 | 42.40441 | -1.92289 | 36167 ft | 437 kts | 208° |
| 2026-04-27 09:16 | 42.34983 | -1.95925 | 36157 ft | 438 kts | 208° |
| 2026-04-27 09:16 | 42.29503 | -1.99575 | 36161 ft | 439 kts | 208° |
| 2026-04-27 09:17 | 42.24024 | -2.03207 | 36165 ft | 439 kts | 207° |
| 2026-04-27 09:17 | 42.18545 | -2.06829 | 36165 ft | 439 kts | 207° |
| 2026-04-27 09:18 | 42.13051 | -2.10459 | 36163 ft | 440 kts | 207° |
| 2026-04-27 09:18 | 42.07545 | -2.14090 | 36162 ft | 440 kts | 207° |
| 2026-04-27 09:19 | 42.02042 | -2.17712 | 36157 ft | 440 kts | 207° |
| 2026-04-27 09:19 | 41.96533 | -2.21330 | 36144 ft | 440 kts | 207° |
| 2026-04-27 09:20 | 41.91014 | -2.24949 | 36162 ft | 442 kts | 207° |
| 2026-04-27 09:20 | 41.85486 | -2.28567 | 36155 ft | 442 kts | 207° |
| 2026-04-27 09:21 | 41.79964 | -2.32173 | 36159 ft | 441 kts | 207° |
| 2026-04-27 09:21 | 41.74452 | -2.35766 | 36144 ft | 440 kts | 207° |
| 2026-04-27 09:22 | 41.68935 | -2.39355 | 36158 ft | 441 kts | 207° |
| 2026-04-27 09:22 | 41.63415 | -2.42939 | 36151 ft | 441 kts | 207° |
| 2026-04-27 09:23 | 41.57894 | -2.46517 | 36148 ft | 441 kts | 207° |
| 2026-04-27 09:23 | 41.52371 | -2.50090 | 36140 ft | 441 kts | 207° |
| 2026-04-27 09:24 | 41.46835 | -2.53664 | 36149 ft | 443 kts | 207° |
| 2026-04-27 09:24 | 41.41296 | -2.57232 | 36155 ft | 442 kts | 207° |
| 2026-04-27 09:25 | 41.35753 | -2.60797 | 36145 ft | 442 kts | 207° |
| 2026-04-27 09:25 | 41.30416 | -2.64789 | 36156 ft | 439 kts | 216° |
| 2026-04-27 09:26 | 41.25370 | -2.69423 | 36140 ft | 440 kts | 216° |
| 2026-04-27 09:26 | 41.20337 | -2.74049 | 36134 ft | 440 kts | 216° |
| 2026-04-27 09:27 | 41.15305 | -2.78670 | 36140 ft | 440 kts | 216° |
| 2026-04-27 09:27 | 41.10268 | -2.83286 | 36131 ft | 440 kts | 216° |
| 2026-04-27 09:28 | 41.05232 | -2.87892 | 36141 ft | 440 kts | 216° |
| 2026-04-27 09:28 | 41.00186 | -2.92499 | 36140 ft | 440 kts | 216° |
| 2026-04-27 09:29 | 40.95137 | -2.97101 | 36140 ft | 440 kts | 216° |
| 2026-04-27 09:29 | 40.90091 | -3.01689 | 36133 ft | 440 kts | 216° |
| 2026-04-27 09:30 | 40.85045 | -3.06271 | 36139 ft | 440 kts | 216° |
| 2026-04-27 09:30 | 40.80022 | -3.10822 | 36144 ft | 437 kts | 216° |
| 2026-04-27 09:31 | 40.75008 | -3.15357 | 36138 ft | 437 kts | 216° |
| 2026-04-27 09:31 | 40.69989 | -3.19887 | 36141 ft | 437 kts | 216° |
| 2026-04-27 09:32 | 40.64971 | -3.24409 | 36147 ft | 437 kts | 216° |
| 2026-04-27 09:32 | 40.59948 | -3.28927 | 36154 ft | 437 kts | 216° |
| 2026-04-27 09:33 | 40.54925 | -3.33436 | 36157 ft | 437 kts | 216° |
| 2026-04-27 09:33 | 40.49904 | -3.37935 | 36153 ft | 437 kts | 216° |
| 2026-04-27 09:34 | 40.44877 | -3.42432 | 36160 ft | 437 kts | 216° |
| 2026-04-27 09:34 | 40.39861 | -3.46910 | 36150 ft | 435 kts | 216° |
| 2026-04-27 09:35 | 40.34849 | -3.51376 | 36130 ft | 436 kts | 216° |
| 2026-04-27 09:35 | 40.29832 | -3.55839 | 36152 ft | 436 kts | 216° |
| 2026-04-27 09:36 | 40.24816 | -3.60293 | 36157 ft | 436 kts | 216° |
| 2026-04-27 09:36 | 40.19795 | -3.64744 | 36158 ft | 436 kts | 216° |
| 2026-04-27 09:37 | 40.14767 | -3.69194 | 36152 ft | 437 kts | 216° |
| 2026-04-27 09:37 | 40.09727 | -3.73642 | 36145 ft | 437 kts | 216° |
| 2026-04-27 09:38 | 40.04692 | -3.78079 | 36134 ft | 437 kts | 216° |
| 2026-04-27 09:38 | 39.99653 | -3.82513 | 36135 ft | 437 kts | 216° |
| 2026-04-27 09:39 | 39.94649 | -3.86908 | 36120 ft | 437 kts | 216° |
| 2026-04-27 09:39 | 39.89568 | -3.91361 | 36133 ft | 438 kts | 216° |
| 2026-04-27 09:40 | 39.84549 | -3.95753 | 36130 ft | 437 kts | 216° |
| 2026-04-27 09:40 | 39.79492 | -4.00170 | 36130 ft | 437 kts | 216° |
| 2026-04-27 09:41 | 39.74411 | -4.04601 | 36137 ft | 437 kts | 216° |
| 2026-04-27 09:41 | 39.69354 | -4.09002 | 36129 ft | 438 kts | 216° |
| 2026-04-27 09:42 | 39.64291 | -4.13400 | 36122 ft | 438 kts | 216° |
| 2026-04-27 09:42 | 39.59229 | -4.17790 | 36118 ft | 438 kts | 216° |
| 2026-04-27 09:43 | 39.54161 | -4.22177 | 36117 ft | 438 kts | 216° |
| 2026-04-27 09:43 | 39.49092 | -4.26558 | 36105 ft | 438 kts | 216° |
| 2026-04-27 09:44 | 39.44024 | -4.30929 | 36102 ft | 438 kts | 216° |
| 2026-04-27 09:44 | 39.38952 | -4.35296 | 36102 ft | 438 kts | 216° |
| 2026-04-27 09:45 | 39.33882 | -4.39654 | 36101 ft | 438 kts | 216° |
| 2026-04-27 09:45 | 39.28810 | -4.44006 | 36091 ft | 438 kts | 216° |
| 2026-04-27 09:46 | 39.23749 | -4.48293 | 36076 ft | 439 kts | 210° |
| 2026-04-27 09:46 | 39.20909 | -4.49732 | 36081 ft | 442 kts | 194° |
| 2026-04-27 09:46 | 39.17882 | -4.50469 | 36099 ft | 444 kts | 193° |
| 2026-04-27 09:47 | 39.11774 | -4.51861 | 36093 ft | 446 kts | 192° |
| 2026-04-27 09:47 | 39.05652 | -4.53167 | 36096 ft | 446 kts | 192° |
| 2026-04-27 09:48 | 38.99526 | -4.54453 | 36088 ft | 446 kts | 192° |
| 2026-04-27 09:48 | 38.93419 | -4.55836 | 36082 ft | 444 kts | 198° |
| 2026-04-27 09:49 | 38.88483 | -4.57613 | 36106 ft | 444 kts | 198° |
| 2026-04-27 09:49 | 38.82549 | -4.59770 | 36083 ft | 442 kts | 198° |
| 2026-04-27 09:50 | 38.76628 | -4.61926 | 36086 ft | 442 kts | 198° |
| 2026-04-27 09:50 | 38.70709 | -4.64078 | 36083 ft | 442 kts | 198° |
| 2026-04-27 09:51 | 38.64791 | -4.66226 | 36075 ft | 442 kts | 198° |
| 2026-04-27 09:51 | 38.58874 | -4.68370 | 36080 ft | 442 kts | 198° |
| 2026-04-27 09:52 | 38.52952 | -4.70512 | 36066 ft | 442 kts | 198° |
| 2026-04-27 09:52 | 38.47043 | -4.72645 | 36060 ft | 441 kts | 198° |
| 2026-04-27 09:53 | 38.41132 | -4.74776 | 36058 ft | 441 kts | 198° |
| 2026-04-27 09:53 | 38.35220 | -4.76904 | 36066 ft | 441 kts | 198° |
| 2026-04-27 09:53 | 38.32285 | -4.77958 | 35716 ft | 436 kts | 198° |
| 2026-04-27 09:54 | 38.29352 | -4.79011 | 34927 ft | 440 kts | 198° |
| 2026-04-27 09:54 | 38.26397 | -4.80072 | 34222 ft | 442 kts | 197° |
| 2026-04-27 09:54 | 38.23419 | -4.81139 | 33305 ft | 447 kts | 197° |
| 2026-04-27 09:54 | 38.20429 | -4.82211 | 32687 ft | 445 kts | 197° |
| 2026-04-27 09:55 | 38.17460 | -4.83273 | 32181 ft | 441 kts | 197° |
| 2026-04-27 09:55 | 38.14513 | -4.84327 | 31652 ft | 438 kts | 197° |
| 2026-04-27 09:55 | 38.08683 | -4.86409 | 30661 ft | 432 kts | 197° |
| 2026-04-27 09:56 | 38.05804 | -4.87436 | 30204 ft | 428 kts | 197° |
| 2026-04-27 09:56 | 38.02941 | -4.88456 | 29649 ft | 426 kts | 197° |
| 2026-04-27 09:56 | 38.00103 | -4.89466 | 29173 ft | 421 kts | 197° |
| 2026-04-27 09:56 | 37.97297 | -4.90465 | 29048 ft | 419 kts | 197° |
| 2026-04-27 09:57 | 37.91659 | -4.92470 | 29033 ft | 422 kts | 197° |
| 2026-04-27 09:57 | 37.86012 | -4.94473 | 28740 ft | 420 kts | 197° |
| 2026-04-27 09:58 | 37.83207 | -4.95467 | 28493 ft | 418 kts | 196° |
| 2026-04-27 09:58 | 37.80413 | -4.96457 | 28265 ft | 416 kts | 196° |
| 2026-04-27 09:58 | 37.77628 | -4.97442 | 28033 ft | 415 kts | 196° |
| 2026-04-27 09:58 | 37.74877 | -4.98416 | 27800 ft | 413 kts | 196° |
| 2026-04-27 09:59 | 37.72112 | -4.99392 | 27574 ft | 412 kts | 196° |
| 2026-04-27 09:59 | 37.69360 | -5.00364 | 27348 ft | 410 kts | 196° |
| 2026-04-27 09:59 | 37.66612 | -5.01333 | 27107 ft | 409 kts | 196° |
| 2026-04-27 09:59 | 37.63877 | -5.02298 | 26905 ft | 408 kts | 196° |
| 2026-04-27 10:00 | 37.61147 | -5.03259 | 26673 ft | 407 kts | 196° |
| 2026-04-27 10:00 | 37.58427 | -5.04216 | 26451 ft | 405 kts | 196° |
| 2026-04-27 10:00 | 37.55718 | -5.05169 | 26232 ft | 404 kts | 196° |
| 2026-04-27 10:00 | 37.53016 | -5.06119 | 26018 ft | 403 kts | 196° |
| 2026-04-27 10:01 | 37.50322 | -5.07065 | 25797 ft | 401 kts | 196° |
| 2026-04-27 10:01 | 37.47636 | -5.08007 | 25586 ft | 400 kts | 196° |
| 2026-04-27 10:01 | 37.44957 | -5.08947 | 25367 ft | 399 kts | 196° |
| 2026-04-27 10:01 | 37.42283 | -5.09884 | 25161 ft | 398 kts | 196° |
| 2026-04-27 10:02 | 37.39618 | -5.10817 | 24952 ft | 397 kts | 196° |
| 2026-04-27 10:02 | 37.36958 | -5.11747 | 24733 ft | 396 kts | 196° |
| 2026-04-27 10:02 | 37.34317 | -5.12671 | 24394 ft | 392 kts | 196° |
| 2026-04-27 10:02 | 37.31698 | -5.13585 | 24054 ft | 389 kts | 196° |
| 2026-04-27 10:03 | 37.29089 | -5.14497 | 23719 ft | 389 kts | 196° |
| 2026-04-27 10:03 | 37.26493 | -5.15403 | 23342 ft | 386 kts | 196° |
| 2026-04-27 10:03 | 37.23914 | -5.16301 | 22950 ft | 384 kts | 196° |
| 2026-04-27 10:03 | 37.21348 | -5.17195 | 22560 ft | 382 kts | 196° |
| 2026-04-27 10:04 | 37.18792 | -5.18085 | 22160 ft | 380 kts | 196° |
| 2026-04-27 10:04 | 37.16257 | -5.18967 | 21786 ft | 377 kts | 196° |
| 2026-04-27 10:04 | 37.13740 | -5.19841 | 21410 ft | 375 kts | 196° |
| 2026-04-27 10:04 | 37.11234 | -5.20712 | 21037 ft | 374 kts | 196° |
| 2026-04-27 10:05 | 37.08735 | -5.21580 | 20677 ft | 371 kts | 195° |
| 2026-04-27 10:05 | 37.06257 | -5.22439 | 20316 ft | 368 kts | 196° |
| 2026-04-27 10:05 | 37.03828 | -5.23281 | 19969 ft | 366 kts | 196° |
| 2026-04-27 10:05 | 37.01347 | -5.24140 | 19620 ft | 365 kts | 195° |
| 2026-04-27 10:06 | 36.98905 | -5.24986 | 19277 ft | 363 kts | 195° |
| 2026-04-27 10:06 | 36.96481 | -5.25825 | 18940 ft | 360 kts | 195° |
| 2026-04-27 10:06 | 36.94073 | -5.26657 | 18599 ft | 358 kts | 195° |
| 2026-04-27 10:06 | 36.91680 | -5.27484 | 18255 ft | 356 kts | 195° |
| 2026-04-27 10:07 | 36.89291 | -5.28309 | 17868 ft | 356 kts | 195° |
| 2026-04-27 10:07 | 36.86913 | -5.29130 | 17480 ft | 353 kts | 195° |
| 2026-04-27 10:07 | 36.84554 | -5.29943 | 17105 ft | 351 kts | 195° |
| 2026-04-27 10:07 | 36.82209 | -5.30752 | 16733 ft | 349 kts | 195° |
| 2026-04-27 10:08 | 36.79872 | -5.31556 | 16368 ft | 347 kts | 195° |
| 2026-04-27 10:08 | 36.77550 | -5.32355 | 16011 ft | 345 kts | 195° |
| 2026-04-27 10:08 | 36.75242 | -5.33149 | 15660 ft | 343 kts | 195° |
| 2026-04-27 10:08 | 36.72944 | -5.33939 | 15291 ft | 342 kts | 195° |
| 2026-04-27 10:09 | 36.70655 | -5.34727 | 14946 ft | 341 kts | 195° |
| 2026-04-27 10:09 | 36.68378 | -5.35508 | 14604 ft | 339 kts | 195° |
| 2026-04-27 10:09 | 36.66109 | -5.36287 | 14260 ft | 337 kts | 195° |
| 2026-04-27 10:09 | 36.63853 | -5.37061 | 13917 ft | 335 kts | 195° |
| 2026-04-27 10:10 | 36.61604 | -5.37832 | 13560 ft | 334 kts | 195° |
| 2026-04-27 10:10 | 36.59371 | -5.38597 | 13179 ft | 333 kts | 195° |
| 2026-04-27 10:10 | 36.57143 | -5.39361 | 12812 ft | 331 kts | 195° |
| 2026-04-27 10:10 | 36.54928 | -5.40118 | 12447 ft | 330 kts | 195° |
| 2026-04-27 10:11 | 36.52722 | -5.40873 | 12087 ft | 328 kts | 196° |
| 2026-04-27 10:11 | 36.50496 | -5.41482 | 11717 ft | 328 kts | 184° |
| 2026-04-27 10:11 | 36.48225 | -5.41246 | 11379 ft | 327 kts | 174° |
| 2026-04-27 10:11 | 36.45971 | -5.40881 | 11023 ft | 327 kts | 174° |
| 2026-04-27 10:12 | 36.43721 | -5.40518 | 10669 ft | 325 kts | 174° |
| 2026-04-27 10:12 | 36.41481 | -5.40239 | 10314 ft | 321 kts | 184° |
| 2026-04-27 10:12 | 36.39331 | -5.40840 | 9937 ft | 317 kts | 207° |
| 2026-04-27 10:12 | 36.37502 | -5.42314 | 9604 ft | 313 kts | 218° |
| 2026-04-27 10:13 | 36.35787 | -5.43976 | 9245 ft | 312 kts | 219° |
| 2026-04-27 10:13 | 36.34090 | -5.45646 | 8889 ft | 311 kts | 219° |
| 2026-04-27 10:13 | 36.32405 | -5.47319 | 8540 ft | 310 kts | 219° |
| 2026-04-27 10:13 | 36.30734 | -5.49001 | 8178 ft | 309 kts | 219° |
| 2026-04-27 10:14 | 36.29073 | -5.50692 | 7822 ft | 308 kts | 219° |
| 2026-04-27 10:14 | 36.27433 | -5.52395 | 7479 ft | 306 kts | 218° |
| 2026-04-27 10:14 | 36.25831 | -5.54098 | 7142 ft | 299 kts | 219° |
| 2026-04-27 10:14 | 36.24285 | -5.55752 | 6781 ft | 289 kts | 219° |
| 2026-04-27 10:15 | 36.22788 | -5.57360 | 6442 ft | 280 kts | 221° |
| 2026-04-27 10:15 | 36.21674 | -5.59319 | 5995 ft | 283 kts | 247° |
| 2026-04-27 10:15 | 36.21376 | -5.61723 | 5619 ft | 285 kts | 269° |
| 2026-04-27 10:15 | 36.21479 | -5.64141 | 5320 ft | 276 kts | 270° |
| 2026-04-27 10:16 | 36.21587 | -5.66472 | 5113 ft | 269 kts | 271° |
| 2026-04-27 10:16 | 36.21655 | -5.68766 | 4885 ft | 264 kts | 270° |
| 2026-04-27 10:16 | 36.21477 | -5.70993 | 4526 ft | 259 kts | 246° |
| 2026-04-27 10:16 | 36.20516 | -5.72792 | 4325 ft | 246 kts | 218° |
| 2026-04-27 10:17 | 36.19058 | -5.73701 | 4190 ft | 228 kts | 187° |
| 2026-04-27 10:17 | 36.17586 | -5.73526 | 4133 ft | 202 kts | 152° |
| 2026-04-27 10:17 | 36.16471 | -5.72586 | 4214 ft | 194 kts | 139° |
| 2026-04-27 10:17 | 36.15452 | -5.71456 | 4209 ft | 198 kts | 130° |
| 2026-04-27 10:18 | 36.14913 | -5.69944 | 4138 ft | 189 kts | 98° |
| 2026-04-27 10:18 | 36.14847 | -5.68325 | 4257 ft | 188 kts | 94° |
| 2026-04-27 10:18 | 36.14843 | -5.66713 | 4217 ft | 186 kts | 93° |
| 2026-04-27 10:18 | 36.14863 | -5.65118 | 4016 ft | 185 kts | 90° |
| 2026-04-27 10:19 | 36.14925 | -5.63552 | 3869 ft | 183 kts | 90° |
| 2026-04-27 10:19 | 36.15010 | -5.61960 | 3705 ft | 181 kts | 89° |
| 2026-04-27 10:19 | 36.15103 | -5.60440 | 3501 ft | 174 kts | 89° |
| 2026-04-27 10:19 | 36.15193 | -5.58988 | 3341 ft | 164 kts | 89° |
| 2026-04-27 10:20 | 36.15275 | -5.57624 | 3223 ft | 157 kts | 89° |
| 2026-04-27 10:20 | 36.15340 | -5.56280 | 3075 ft | 157 kts | 90° |
| 2026-04-27 10:20 | 36.15356 | -5.54918 | 3025 ft | 159 kts | 91° |
| 2026-04-27 10:20 | 36.15371 | -5.53547 | 2987 ft | 160 kts | 91° |
| 2026-04-27 10:21 | 36.15385 | -5.52160 | 2784 ft | 161 kts | 91° |
| 2026-04-27 10:21 | 36.15419 | -5.50802 | 2654 ft | 157 kts | 91° |
| 2026-04-27 10:21 | 36.15453 | -5.49459 | 2504 ft | 157 kts | 90° |
| 2026-04-27 10:21 | 36.15492 | -5.48095 | 2222 ft | 158 kts | 90° |
| 2026-04-27 10:22 | 36.15416 | -5.46773 | 1961 ft | 146 kts | 101° |
| 2026-04-27 10:22 | 36.15199 | -5.45653 | 1721 ft | 128 kts | 102° |
| 2026-04-27 10:22 | 36.14999 | -5.44604 | 1417 ft | 124 kts | 100° |
| 2026-04-27 10:22 | 36.14839 | -5.43524 | 1259 ft | 130 kts | 98° |
| 2026-04-27 10:23 | 36.14707 | -5.42392 | 1186 ft | 135 kts | 91° |
| 2026-04-27 10:23 | 36.14792 | -5.41186 | 983 ft | 144 kts | 82° |
| 2026-04-27 10:23 | 36.14931 | -5.39979 | 794 ft | 139 kts | 84° |
| 2026-04-27 10:23 | 36.14981 | -5.38779 | 540 ft | 141 kts | 85° |
| 2026-04-27 10:24 | 36.15022 | -5.37561 | 285 ft | 142 kts | 84° |
| 2026-04-27 10:24 | 36.15062 | -5.36351 | 97 ft | 137 kts | 85° |
| 2026-04-27 10:24 | 36.15104 | -5.35319 | 22 ft | 87 kts | 89° |
| 2026-04-27 10:24 | 36.15113 | -5.34831 | 21 ft | 36 kts | 86° |
| 2026-04-27 10:25 | 36.15144 | -5.34691 | 20 ft | 6 kts | 28° |
| 2026-04-27 10:25 | 36.15154 | -5.34686 | 20 ft | 1 kts | 23° |
| 2026-04-27 10:25 | 36.15164 | -5.34683 | 20 ft | 2 kts | 6° |
| 2026-04-27 10:25 | 36.15166 | -5.34683 | 20 ft | 1 kts | 2° |
| 2026-04-27 10:26 | 36.15168 | -5.34683 | 20 ft | 2 kts | 1° |
| 2026-04-27 10:26 | 36.15190 | -5.34685 | 21 ft | 6 kts | 359° |
| 2026-04-27 10:26 | 36.15243 | -5.34674 | 21 ft | 8 kts | 6° |
| 2026-04-27 10:26 | 36.15278 | -5.34674 | 21 ft | 3 kts | 357° |
| 2026-04-27 10:27 | 36.15298 | -5.34675 | 21 ft | 1 kts | 357° |
| 2026-04-27 10:27 | 36.15299 | -5.34675 | 21 ft | 0 kts | 357° |